Time;durP1;ratioP1;P1;durP2;ratioP2;P2;SDS_P1;SDS_P2;PMS_P1;PMS_P2;Temp;Humidity;BMP_temperature;BMP_pressure;BME280_temperature;BME280_humidity;BME280_pressure;Samples;Min_cycle;Max_cycle;Signal;HPM_P1;HPM_P2
2023/07/05 00:02:20;;;;;;;11.85;9.25;;;;;;;26.86;53.28;99318.97;5091406;28;20024;-75
2023/07/05 00:04:46;;;;;;;10.07;9.05;;;;;;;26.34;53.38;99238.59;5091314;28;20027;-75
2023/07/05 00:07:11;;;;;;;12.18;9.80;;;;;;;26.96;53.52;99347.03;5091387;28;20107;-77
2023/07/05 00:09:37;;;;;;;10.05;8.88;;;;;;;26.87;53.72;99341.44;5091261;28;20107;-77
2023/07/05 00:12:02;;;;;;;11.15;8.23;;;;;;;26.38;53.59;99274.84;5091070;28;20120;-75
2023/07/05 00:14:29;;;;;;;13.15;9.02;;;;;;;26.45;53.77;99279.91;5089847;28;20111;-78
2023/07/05 00:16:54;;;;;;;9.68;8.00;;;;;;;26.61;53.92;99324.66;5090945;28;20032;-78
2023/07/05 00:19:20;;;;;;;21.75;9.70;;;;;;;26.35;53.80;99282.72;5091167;28;20039;-78
2023/07/05 00:21:45;;;;;;;10.25;9.15;;;;;;;26.46;54.01;99298.56;5089926;28;20077;-78
2023/07/05 00:24:10;;;;;;;9.30;8.40;;;;;;;26.32;53.98;99275.97;5092925;28;20020;-76
2023/07/05 00:26:36;;;;;;;11.27;8.90;;;;;;;26.56;54.34;99324.72;5093912;28;20080;-78
2023/07/05 00:29:01;;;;;;;9.68;8.60;;;;;;;26.59;54.50;99348.50;5095218;28;20031;-78
2023/07/05 00:31:26;;;;;;;13.63;9.27;;;;;;;26.29;54.35;99299.00;5095237;28;20028;-76
2023/07/05 00:33:52;;;;;;;12.60;10.02;;;;;;;26.18;54.58;99285.84;5095343;28;20523;-77
2023/07/05 00:36:17;;;;;;;11.90;9.57;;;;;;;26.00;54.54;99262.19;5095325;28;20024;-77
2023/07/05 00:38:43;;;;;;;13.02;11.73;;;;;;;26.51;54.95;99344.53;5095426;28;20515;-75
2023/07/05 00:41:08;;;;;;;11.73;10.30;;;;;;;26.42;55.38;99345.44;5095671;28;20036;-77
2023/07/05 00:43:33;;;;;;;12.43;11.23;;;;;;;26.42;55.28;99356.28;5095496;28;20075;-76
2023/07/05 00:46:07;;;;;;;12.02;10.75;;;;;;;26.43;55.15;99345.16;5094416;28;20016;-77
2023/07/05 00:48:41;;;;;;;11.68;10.48;;;;;;;26.39;55.41;99344.13;5095369;28;20035;-75
2023/07/05 00:51:18;;;;;;;13.85;11.07;;;;;;;26.35;55.90;99339.56;5095613;28;20032;-76
2023/07/05 00:53:43;;;;;;;11.43;10.23;;;;;;;26.18;55.54;99323.75;5094025;28;20064;-77
2023/07/05 00:56:19;;;;;;;11.38;10.27;;;;;;;26.24;55.64;99341.53;5094177;28;20118;-76
2023/07/05 00:58:45;;;;;;;11.95;10.57;;;;;;;25.69;55.89;99245.47;5095116;28;20090;-77
2023/07/05 01:01:11;;;;;;;11.65;10.00;;;;;;;26.00;56.04;99319.00;5094938;28;20496;-76
2023/07/05 01:03:38;;;;;;;12.50;10.73;;;;;;;25.54;56.27;99240.97;5095378;28;20101;-76
2023/07/05 01:06:06;;;;;;;15.85;10.23;;;;;;;25.54;56.45;99251.78;5094891;28;20099;-76
2023/07/05 01:08:31;;;;;;;12.38;11.15;;;;;;;26.05;56.49;99338.75;5094714;28;20086;-77
2023/07/05 01:11:09;;;;;;;12.93;10.80;;;;;;;25.32;56.56;99227.91;5094937;28;20032;-77
2023/07/05 01:13:54;;;;;;;11.77;10.63;;;;;;;25.91;56.66;99324.25;5093500;28;20089;-77
2023/07/05 01:16:31;;;;;;;12.30;10.95;;;;;;;25.92;56.65;99334.78;5094694;28;20039;-75
2023/07/05 01:19:32;;;;;;;11.63;10.43;;;;;;;25.92;57.11;99336.66;5093300;28;20046;-76
2023/07/05 01:22:13;;;;;;;11.70;10.27;;;;;;;25.62;56.83;99292.53;5081070;28;20054;-77
2023/07/05 01:24:44;;;;;;;11.20;10.02;;;;;;;25.92;56.83;99331.25;5094249;28;20028;-76
2023/07/05 01:27:31;;;;;;;12.27;10.82;;;;;;;25.87;57.07;99334.81;5094952;28;20043;-77
2023/07/05 01:30:29;;;;;;;13.07;11.75;;;;;;;25.20;57.61;99266.06;5093141;28;20051;-76
2023/07/05 01:33:11;;;;;;;12.75;11.43;;;;;;;25.39;58.10;99312.19;5094302;28;20531;-77
2023/07/05 01:35:44;;;;;;;12.23;11.02;;;;;;;25.41;57.88;99334.31;5093667;28;20020;-76
2023/07/05 01:38:10;;;;;;;12.45;11.25;;;;;;;24.91;58.70;99286.75;5094275;28;20051;-77
2023/07/05 01:40:38;;;;;;;14.55;12.35;;;;;;;25.15;58.91;99330.13;5093968;28;20024;-77
2023/07/05 01:43:10;;;;;;;12.50;11.40;;;;;;;24.70;58.79;99277.94;5092647;28;20020;-77
2023/07/05 01:46:01;;;;;;;15.05;12.13;;;;;;;24.91;59.41;99340.75;5093888;28;20051;-77
2023/07/05 01:48:42;;;;;;;13.05;11.70;;;;;;;24.61;59.11;99290.38;5089352;28;20086;-77
2023/07/05 01:51:17;;;;;;;12.00;10.73;;;;;;;24.58;59.20;99297.16;5094047;28;20020;-76
2023/07/05 01:54:00;;;;;;;15.88;12.10;;;;;;;24.87;59.60;99345.91;5093702;28;20103;-77
2023/07/05 01:56:35;;;;;;;14.07;12.20;;;;;;;24.60;59.43;99297.69;5093697;28;20103;-77
2023/07/05 01:59:04;;;;;;;13.45;12.05;;;;;;;24.81;59.62;99343.50;5093568;28;20531;-77
2023/07/05 02:01:32;;;;;;;12.90;11.57;;;;;;;24.92;59.48;99345.88;5093321;28;20030;-77
2023/07/05 02:03:58;;;;;;;13.13;11.48;;;;;;;24.18;59.61;99229.75;5093390;28;20565;-77
2023/07/05 02:06:26;;;;;;;12.98;11.52;;;;;;;24.87;59.77;99343.19;5092165;28;20047;-77
2023/07/05 02:08:52;;;;;;;13.20;11.25;;;;;;;24.85;59.85;99349.97;5093454;28;20099;-77
2023/07/05 02:11:18;;;;;;;12.27;10.98;;;;;;;24.46;60.08;99298.50;5093462;28;20020;-77
2023/07/05 02:13:43;;;;;;;12.55;11.23;;;;;;;24.53;60.11;99301.75;5093419;28;20042;-76
2023/07/05 02:16:09;;;;;;;14.63;11.50;;;;;;;24.27;60.28;99279.41;5093334;28;20028;-76
2023/07/05 02:18:34;;;;;;;12.07;10.90;;;;;;;24.75;60.48;99348.09;5091638;28;20090;-77
2023/07/05 02:21:00;;;;;;;13.13;11.80;;;;;;;24.48;60.09;99294.44;5092951;28;20030;-76
2023/07/05 02:23:25;;;;;;;13.27;11.93;;;;;;;24.66;60.12;99334.38;5092859;28;20413;-76
2023/07/05 02:25:51;;;;;;;14.25;11.95;;;;;;;24.76;60.33;99354.31;5092904;28;20055;-77
2023/07/05 02:28:16;;;;;;;14.75;11.68;;;;;;;24.67;60.22;99340.56;5092725;28;20031;-77
2023/07/05 02:30:42;;;;;;;12.05;10.85;;;;;;;24.59;60.30;99319.53;5092746;28;20050;-76
2023/07/05 02:33:07;;;;;;;13.10;11.85;;;;;;;24.23;60.40;99281.00;5092864;28;20027;-76
2023/07/05 02:35:38;;;;;;;15.02;12.50;;;;;;;24.38;60.74;99300.69;5093039;28;20031;-77
2023/07/05 02:38:04;;;;;;;16.60;12.13;;;;;;;24.61;61.12;99355.97;5091846;28;20028;-77
2023/07/05 02:40:30;;;;;;;14.75;13.30;;;;;;;24.22;61.50;99293.69;5092806;28;20032;-77
2023/07/05 02:42:57;;;;;;;13.95;11.93;;;;;;;24.49;61.56;99352.75;5092779;28;20020;-77
2023/07/05 02:45:23;;;;;;;12.43;11.15;;;;;;;24.53;61.42;99351.16;5092629;28;20051;-77
2023/07/05 02:47:48;;;;;;;14.73;13.23;;;;;;;24.22;61.79;99304.47;5090404;28;20477;-77
2023/07/05 02:50:17;;;;;;;14.13;12.75;;;;;;;24.20;61.69;99308.53;5091334;28;20039;-77
2023/07/05 02:52:42;;;;;;;14.50;12.38;;;;;;;24.34;62.05;99331.19;5092658;28;20020;-76
2023/07/05 02:55:08;;;;;;;13.85;12.15;;;;;;;24.15;62.03;99305.84;5092304;28;20043;-77
2023/07/05 02:57:33;;;;;;;14.05;12.55;;;;;;;24.17;61.88;99326.06;5092153;28;20548;-77
2023/07/05 02:59:59;;;;;;;13.43;12.07;;;;;;;24.37;62.20;99349.53;5092621;28;20031;-77
2023/07/05 03:02:24;;;;;;;14.73;13.23;;;;;;;24.24;61.92;99340.09;5090953;28;20105;-76
2023/07/05 03:04:49;;;;;;;13.55;12.25;;;;;;;23.99;62.27;99302.38;5092331;28;20097;-76
2023/07/05 03:07:15;;;;;;;14.90;11.75;;;;;;;24.02;62.15;99307.22;5092324;28;20058;-77
2023/07/05 03:09:40;;;;;;;14.27;12.77;;;;;;;24.00;62.53;99317.47;5090926;28;20031;-77
2023/07/05 03:12:06;;;;;;;13.65;12.32;;;;;;;24.12;62.24;99330.66;5092030;28;20485;-76
2023/07/05 03:14:32;;;;;;;13.43;12.10;;;;;;;23.94;62.28;99296.97;5091964;28;20028;-77
2023/07/05 03:16:57;;;;;;;14.30;13.00;;;;;;;24.09;62.25;99332.03;5092031;28;20083;-76
2023/07/05 03:19:22;;;;;;;16.23;13.32;;;;;;;24.04;62.44;99324.75;5092234;28;20093;-77
2023/07/05 03:21:48;;;;;;;14.65;12.38;;;;;;;24.09;61.99;99322.03;5090788;28;20063;-76
2023/07/05 03:24:13;;;;;;;14.63;12.43;;;;;;;24.08;62.06;99325.81;5091979;28;20201;-77
2023/07/05 03:26:39;;;;;;;15.05;12.95;;;;;;;24.16;62.20;99340.63;5090546;28;20024;-76
2023/07/05 03:29:04;;;;;;;14.23;12.43;;;;;;;24.09;62.48;99350.91;5090533;28;20115;-76
2023/07/05 03:31:30;;;;;;;13.80;12.50;;;;;;;23.60;62.52;99257.06;5090726;28;20036;-77
2023/07/05 03:33:55;;;;;;;13.95;12.60;;;;;;;24.15;62.49;99333.63;5092223;28;20027;-76
2023/07/05 03:36:21;;;;;;;14.60;13.23;;;;;;;23.86;62.47;99290.25;5092131;28;20039;-77
2023/07/05 03:38:49;;;;;;;14.68;13.18;;;;;;;23.81;62.40;99284.84;5090766;28;20062;-76
2023/07/05 03:41:18;;;;;;;14.43;12.82;;;;;;;24.20;62.42;99341.72;5092061;28;20459;-76
2023/07/05 03:43:46;;;;;;;15.50;13.55;;;;;;;24.23;62.73;99340.34;5092030;28;20020;-76
2023/07/05 03:46:13;;;;;;;14.23;12.48;;;;;;;24.25;62.33;99346.28;5092007;28;20024;-77
2023/07/05 03:48:42;;;;;;;14.25;12.85;;;;;;;24.28;62.38;99349.28;5091590;28;20028;-77
2023/07/05 03:51:13;;;;;;;18.40;14.38;;;;;;;24.27;62.43;99342.28;5091756;28;20106;-77
2023/07/05 03:53:38;;;;;;;14.02;12.65;;;;;;;23.71;62.87;99247.91;5091615;28;20051;-76
2023/07/05 03:56:06;;;;;;;15.13;13.63;;;;;;;23.74;63.06;99260.03;5091607;28;20523;-76
2023/07/05 03:58:32;;;;;;;16.00;14.38;;;;;;;23.85;62.94;99279.72;5091205;28;20474;-76
2023/07/05 04:01:14;;;;;;;16.88;15.07;;;;;;;24.29;63.34;99342.81;5091532;28;20028;-76
2023/07/05 04:03:44;;;;;;;16.00;14.40;;;;;;;23.74;63.08;99239.25;5090323;28;20106;-77
2023/07/05 04:06:10;;;;;;;17.17;15.57;;;;;;;24.07;63.55;99297.22;5091537;28;20051;-75
2023/07/05 04:08:36;;;;;;;18.05;15.88;;;;;;;24.41;63.30;99342.50;5090362;28;20493;-77
2023/07/05 04:11:01;;;;;;;18.08;15.15;;;;;;;24.02;63.24;99272.97;5091927;28;20032;-76
2023/07/05 04:13:27;;;;;;;21.23;17.42;;;;;;;23.93;64.32;99279.97;5091879;28;20047;-77
2023/07/05 04:16:00;;;;;;;17.17;15.52;;;;;;;24.30;64.49;99335.53;5091894;28;20031;-78
2023/07/05 04:18:27;;;;;;;16.92;15.13;;;;;;;23.73;64.47;99240.34;5089914;28;20489;-77
2023/07/05 04:20:52;;;;;;;18.38;16.48;;;;;;;24.02;64.32;99281.06;5091159;28;20052;-78
2023/07/05 04:23:18;;;;;;;17.25;15.45;;;;;;;24.00;64.41;99269.72;5091211;28;20117;-77
2023/07/05 04:25:43;;;;;;;18.73;16.90;;;;;;;24.18;64.69;99297.22;5091442;28;20435;-77
2023/07/05 04:28:09;;;;;;;17.60;15.80;;;;;;;24.28;65.25;99318.78;5090064;28;20413;-77
2023/07/05 04:30:34;;;;;;;18.00;15.55;;;;;;;24.37;64.92;99320.66;5091475;28;20043;-77
2023/07/05 04:32:59;;;;;;;18.55;16.50;;;;;;;24.21;65.30;99288.56;5091757;28;20028;-77
2023/07/05 04:35:25;;;;;;;18.23;16.52;;;;;;;24.20;65.33;99268.06;5089898;28;20034;-77
2023/07/05 04:37:50;;;;;;;20.23;18.30;;;;;;;24.41;65.64;99304.72;5089675;28;20024;-77
2023/07/05 04:40:15;;;;;;;17.80;16.00;;;;;;;24.67;65.69;99335.19;5091136;28;20035;-77
2023/07/05 04:42:41;;;;;;;18.13;16.27;;;;;;;24.43;65.76;99294.47;5090345;28;20110;-78
2023/07/05 04:45:07;;;;;;;19.20;17.02;;;;;;;24.74;65.95;99338.38;5089984;28;20050;-78
2023/07/05 04:47:32;;;;;;;18.02;16.33;;;;;;;24.80;65.50;99326.50;5091064;28;20028;-77
2023/07/05 04:49:58;;;;;;;19.67;17.58;;;;;;;24.77;65.14;99312.72;5091017;28;20027;-77
2023/07/05 04:52:23;;;;;;;19.08;16.77;;;;;;;24.62;65.20;99292.81;5091104;28;20107;-76
2023/07/05 04:54:49;;;;;;;19.17;17.17;;;;;;;24.88;64.90;99325.91;5091054;28;20035;-77
2023/07/05 04:57:14;;;;;;;20.15;18.02;;;;;;;24.86;64.56;99319.16;5090674;28;20468;-78
2023/07/05 04:59:43;;;;;;;18.83;17.13;;;;;;;24.99;64.47;99332.09;5090597;28;20059;-77
2023/07/05 05:02:09;;;;;;;18.90;17.00;;;;;;;24.79;64.33;99297.88;5090763;28;20024;-78
2023/07/05 05:04:35;;;;;;;17.73;15.98;;;;;;;25.16;64.25;99354.16;5090698;28;20055;-75
2023/07/05 05:07:00;;;;;;;18.67;16.88;;;;;;;24.73;64.47;99268.47;5090849;28;20557;-77
2023/07/05 05:09:25;;;;;;;16.63;14.68;;;;;;;24.95;64.31;99307.50;5091305;28;20036;-76
2023/07/05 05:11:51;;;;;;;18.13;16.30;;;;;;;24.89;64.84;99288.91;5094448;28;20028;-75
2023/07/05 05:14:16;;;;;;;19.52;17.17;;;;;;;25.10;64.78;99328.25;5092981;28;20034;-75
2023/07/05 05:16:42;;;;;;;17.27;15.50;;;;;;;24.87;64.53;99305.38;5093142;28;20110;-75
2023/07/05 05:19:07;;;;;;;18.80;16.95;;;;;;;25.16;64.61;99348.75;5092944;28;20028;-79
2023/07/05 05:21:33;;;;;;;16.42;14.95;;;;;;;25.12;64.84;99338.78;5094317;28;20081;-77
2023/07/05 05:23:58;;;;;;;16.63;14.77;;;;;;;24.93;64.51;99311.56;5094083;28;20120;-76
2023/07/05 05:26:24;;;;;;;18.33;16.38;;;;;;;25.32;64.40;99365.72;5094313;28;20085;-76
2023/07/05 05:28:49;;;;;;;15.68;14.27;;;;;;;24.95;64.04;99280.50;5092604;28;20016;-77
2023/07/05 05:31:14;;;;;;;18.23;16.42;;;;;;;25.33;63.60;99332.22;5094066;28;20024;-76
2023/07/05 05:33:40;;;;;;;17.55;15.85;;;;;;;25.21;63.31;99318.22;5092770;28;20027;-76
2023/07/05 05:36:05;;;;;;;16.13;14.25;;;;;;;25.11;63.14;99313.66;5092615;28;20016;-78
2023/07/05 05:38:31;;;;;;;18.40;16.33;;;;;;;25.38;63.55;99353.00;5093795;28;20059;-77
2023/07/05 05:41:01;;;;;;;19.55;17.50;;;;;;;25.12;63.79;99323.38;5093775;28;20447;-77
2023/07/05 05:43:27;;;;;;;17.15;15.45;;;;;;;25.27;63.83;99341.44;5092516;28;20031;-77
2023/07/05 05:45:52;;;;;;;16.77;15.18;;;;;;;25.24;63.07;99326.56;5093628;28;20144;-76
2023/07/05 05:48:17;;;;;;;18.08;16.33;;;;;;;24.90;63.21;99258.13;5093895;28;20106;-78
2023/07/05 05:50:43;;;;;;;17.77;16.15;;;;;;;25.10;62.92;99279.63;5093951;28;20026;-78
2023/07/05 05:53:10;;;;;;;21.92;19.60;;;;;;;25.41;62.61;99312.69;5092583;28;20028;-77
2023/07/05 05:55:38;;;;;;;19.77;17.70;;;;;;;25.32;62.16;99296.28;5092449;28;20028;-77
2023/07/05 05:58:04;;;;;;;19.10;16.25;;;;;;;25.42;62.23;99308.91;5075766;28;20047;-76
2023/07/05 06:00:30;;;;;;;19.17;16.23;;;;;;;25.64;62.07;99343.63;5072320;28;20029;-78
2023/07/05 06:02:57;;;;;;;19.30;17.38;;;;;;;25.69;61.68;99340.91;5076367;28;20037;-75
2023/07/05 06:05:22;;;;;;;17.70;15.98;;;;;;;25.70;61.47;99342.53;5056672;28;20104;-75
2023/07/05 06:07:48;;;;;;;16.00;14.15;;;;;;;25.74;60.93;99348.19;5056213;28;20536;-77
2023/07/05 06:10:13;;;;;;;16.27;14.75;;;;;;;25.39;61.18;99285.16;5073179;28;20028;-76
2023/07/05 06:12:41;;;;;;;21.23;16.35;;;;;;;25.76;61.26;99338.69;5073605;28;20547;-77
2023/07/05 06:15:11;;;;;;;20.45;15.25;;;;;;;25.89;61.37;99350.75;5073497;28;20521;-77
2023/07/05 06:17:37;;;;;;;15.13;13.50;;;;;;;25.93;60.54;99347.22;5072808;28;20028;-76
2023/07/05 06:20:05;;;;;;;12.50;11.30;;;;;;;25.84;59.85;99327.28;5072514;28;20456;-77
2023/07/05 06:22:31;;;;;;;14.93;13.40;;;;;;;26.00;59.73;99346.06;5072656;28;20031;-77
2023/07/05 06:24:57;;;;;;;13.52;12.25;;;;;;;25.69;59.30;99289.53;5072728;28;20033;-77
2023/07/05 06:27:22;;;;;;;11.95;10.85;;;;;;;25.97;58.77;99329.31;5071421;28;20103;-77
2023/07/05 06:29:47;;;;;;;14.40;13.00;;;;;;;26.15;58.91;99354.09;5073465;28;20077;-77
2023/07/05 06:32:13;;;;;;;14.23;12.40;;;;;;;26.19;58.84;99347.00;5074345;28;20413;-77
2023/07/05 06:34:39;;;;;;;13.65;12.25;;;;;;;26.20;58.41;99340.50;5072162;28;20031;-77
2023/07/05 06:37:05;;;;;;;12.40;11.10;;;;;;;25.98;57.85;99303.88;5076506;28;20067;-77
2023/07/05 06:39:30;;;;;;;14.15;12.80;;;;;;;25.91;57.83;99279.06;5074068;28;20055;-78
2023/07/05 06:41:55;;;;;;;14.27;12.98;;;;;;;26.34;58.20;99341.47;5071329;28;20031;-77
2023/07/05 06:44:21;;;;;;;13.13;11.80;;;;;;;25.87;58.11;99259.06;5072163;28;20048;-75
2023/07/05 06:46:46;;;;;;;21.92;19.73;;;;;;;26.43;57.82;99338.94;5074578;28;20084;-76
2023/07/05 06:49:12;;;;;;;12.77;11.70;;;;;;;26.11;57.88;99275.38;5088996;28;20020;-77
2023/07/05 06:51:37;;;;;;;13.20;11.98;;;;;;;26.22;57.61;99274.16;5096700;28;20408;-76
2023/07/05 06:54:03;;;;;;;13.57;12.32;;;;;;;26.35;57.46;99285.44;5077826;28;20531;-74
2023/07/05 06:56:28;;;;;;;14.15;12.80;;;;;;;26.67;57.05;99328.91;5091232;28;20031;-75
2023/07/05 06:58:53;;;;;;;16.90;15.30;;;;;;;26.55;56.68;99309.56;5092221;28;20453;-77
2023/07/05 07:01:19;;;;;;;13.07;11.88;;;;;;;26.43;56.69;99282.91;5075623;28;20028;-77
2023/07/05 07:03:44;;;;;;;12.85;11.25;;;;;;;26.23;56.34;99240.59;5072028;28;20134;-75
2023/07/05 07:06:10;;;;;;;15.05;13.65;;;;;;;26.88;56.38;99338.44;5071878;28;20032;-76
2023/07/05 07:08:38;;;;;;;13.88;12.48;;;;;;;26.94;56.24;99335.66;5071990;28;20082;-77
2023/07/05 07:11:05;;;;;;;12.02;10.93;;;;;;;26.98;55.64;99331.31;5072635;28;20452;-76
2023/07/05 07:13:32;;;;;;;11.68;10.52;;;;;;;26.84;55.08;99318.44;5072205;28;20056;-76
2023/07/05 07:16:05;;;;;;;10.90;9.60;;;;;;;27.04;54.62;99322.81;5087472;28;20496;-77
2023/07/05 07:18:31;;;;;;;11.27;10.07;;;;;;;27.07;53.43;99316.81;5072985;28;20123;-77
2023/07/05 07:20:59;;;;;;;12.63;9.32;;;;;;;27.21;52.73;99325.03;5074543;28;20056;-77
2023/07/05 07:23:24;;;;;;;15.38;10.38;;;;;;;26.87;52.41;99260.16;5077023;28;20467;-77
2023/07/05 07:26:11;;;;;;;9.68;8.75;;;;;;;27.36;52.24;99330.22;5071405;28;20028;-78
2023/07/05 07:28:37;;;;;;;10.77;9.77;;;;;;;27.31;52.47;99308.63;5071578;28;20028;-77
2023/07/05 07:31:15;;;;;;;12.23;9.93;;;;;;;27.49;52.25;99323.25;5070082;28;20028;-78
2023/07/05 07:33:41;;;;;;;11.68;9.15;;;;;;;27.25;52.18;99273.75;5069983;28;20039;-77
2023/07/05 07:36:11;;;;;;;11.07;9.95;;;;;;;27.53;51.93;99294.47;5075558;28;20078;-77
2023/07/05 07:38:38;;;;;;;12.02;9.38;;;;;;;27.74;51.13;99317.50;5086192;28;20056;-77
2023/07/05 07:41:03;;;;;;;17.30;9.75;;;;;;;27.55;51.13;99289.56;5081777;28;20036;-77
2023/07/05 07:43:28;;;;;;;15.90;10.70;;;;;;;27.51;50.67;99270.38;5072353;28;20024;-77
2023/07/05 07:45:54;;;;;;;13.38;10.63;;;;;;;27.90;50.32;99336.22;5068335;28;20518;-76
2023/07/05 07:48:19;;;;;;;12.82;10.25;;;;;;;27.70;50.64;99275.78;5070328;28;20024;-74
2023/07/05 07:50:49;;;;;;;10.20;9.27;;;;;;;27.78;50.92;99277.00;5074849;28;20417;-77
2023/07/05 07:53:33;;;;;;;12.98;10.70;;;;;;;28.02;50.67;99314.84;5073764;28;20039;-76
2023/07/05 07:55:59;;;;;;;11.32;10.13;;;;;;;27.80;50.49;99274.81;5064067;28;20048;-76
2023/07/05 07:58:24;;;;;;;11.88;9.95;;;;;;;27.66;49.94;99261.19;5068194;28;20138;-76
2023/07/05 08:00:50;;;;;;;10.63;9.40;;;;;;;28.13;49.20;99321.72;5079659;28;20027;-77
2023/07/05 08:03:15;;;;;;;20.40;15.07;;;;;;;27.75;49.17;99236.91;5090939;28;20504;-75
2023/07/05 08:05:41;;;;;;;15.35;12.40;;;;;;;27.82;48.77;99238.13;5091354;28;20030;-76
2023/07/05 08:08:06;;;;;;;12.45;11.25;;;;;;;28.26;48.51;99301.97;5084057;28;20092;-76
2023/07/05 08:10:32;;;;;;;15.55;12.48;;;;;;;28.06;48.56;99261.56;5077680;28;20123;-76
2023/07/05 08:12:57;;;;;;;15.55;12.50;;;;;;;28.48;49.19;99317.59;5091291;28;20052;-77
2023/07/05 08:15:23;;;;;;;13.05;11.00;;;;;;;28.54;49.35;99321.81;5074215;28;20033;-77
2023/07/05 08:17:50;;;;;;;11.43;10.10;;;;;;;28.38;48.13;99290.63;5089851;28;20051;-76
2023/07/05 08:20:15;;;;;;;11.93;10.70;;;;;;;28.13;48.33;99240.28;5069503;28;20029;-77
2023/07/05 08:22:40;;;;;;;14.07;12.75;;;;;;;28.57;48.20;99314.97;5065717;28;20041;-77
2023/07/05 08:25:06;;;;;;;14.38;12.20;;;;;;;28.66;48.40;99315.88;5066155;28;20111;-76
2023/07/05 08:27:32;;;;;;;14.48;12.68;;;;;;;28.74;48.30;99315.16;5057092;28;20104;-77
2023/07/05 08:29:57;;;;;;;13.82;12.43;;;;;;;28.85;48.21;99311.16;5050898;28;20044;-77
2023/07/05 08:32:22;;;;;;;13.00;11.25;;;;;;;28.84;47.86;99300.59;5070438;28;20079;-75
2023/07/05 08:34:49;;;;;;;14.63;13.07;;;;;;;28.92;47.57;99289.78;5070933;28;20025;-76
2023/07/05 08:37:15;;;;;;;19.00;14.40;;;;;;;28.90;47.92;99264.03;5070412;28;20112;-77
2023/07/05 08:39:40;;;;;;;17.80;15.02;;;;;;;29.22;47.87;99284.81;5070623;28;20024;-77
2023/07/05 08:42:33;;;;;;;17.17;13.32;;;;;;;29.45;47.50;99310.94;5056540;28;20110;-78
2023/07/05 08:45:26;;;;;;;18.60;16.42;;;;;;;29.54;47.26;99314.53;5061869;28;20039;-75
2023/07/05 08:47:56;;;;;;;19.17;16.17;;;;;;;29.67;47.34;99310.94;5068521;28;20023;-75
2023/07/05 08:50:27;;;;;;;20.75;17.20;;;;;;;29.78;46.99;99308.00;5081184;28;20416;-77
2023/07/05 08:53:06;;;;;;;21.80;17.10;;;;;;;29.79;46.98;99296.81;5072000;28;20033;-76
2023/07/05 08:55:49;;;;;;;21.55;17.48;;;;;;;29.56;46.73;99238.06;5073121;28;20032;-75
2023/07/05 08:58:21;;;;;;;21.70;18.27;;;;;;;29.99;46.60;99299.00;5063136;28;20044;-78
2023/07/05 09:00:58;;;;;;;23.30;18.08;;;;;;;30.06;46.62;99304.03;5073759;28;20078;-77
2023/07/05 09:03:28;;;;;;;27.00;22.08;;;;;;;30.16;46.49;99301.03;5089055;28;20408;-75
2023/07/05 09:05:57;;;;;;;23.23;19.17;;;;;;;30.24;46.69;99303.00;5094172;28;20032;-76
2023/07/05 09:08:45;;;;;;;19.80;17.80;;;;;;;30.34;45.96;99307.38;5079451;28;20386;-77
2023/07/05 09:11:17;;;;;;;18.88;16.52;;;;;;;30.42;45.62;99298.44;5075897;28;20028;-77
2023/07/05 09:13:43;;;;;;;15.38;13.77;;;;;;;30.40;45.38;99275.34;5066935;28;20199;-76
2023/07/05 09:16:23;;;;;;;15.13;13.63;;;;;;;30.44;45.11;99246.34;5072995;28;20512;-76
2023/07/05 09:19:03;;;;;;;15.68;12.75;;;;;;;30.70;44.44;99250.00;5077742;28;20485;-77
2023/07/05 09:21:35;;;;;;;16.30;14.67;;;;;;;31.15;44.35;99293.38;5059177;28;20032;-77
2023/07/05 09:24:12;;;;;;;15.18;13.63;;;;;;;31.26;44.20;99283.78;5071295;28;20028;-76
2023/07/05 09:26:41;;;;;;;15.35;13.32;;;;;;;31.07;44.08;99242.31;5075160;28;20873;-76
2023/07/05 09:29:17;;;;;;;15.85;14.25;;;;;;;31.54;43.57;99282.31;5089141;28;20055;-76
2023/07/05 09:31:44;;;;;;;14.80;13.40;;;;;;;31.39;43.58;99233.69;5095042;28;20103;-77
2023/07/05 09:34:31;;;;;;;14.30;12.93;;;;;;;31.89;43.24;99274.09;5094721;28;20428;-77
2023/07/05 09:36:56;;;;;;;13.43;12.25;;;;;;;32.06;42.90;99282.25;5090119;28;20137;-75
2023/07/05 09:39:28;;;;;;;13.52;12.30;;;;;;;32.18;42.62;99271.44;5078710;28;20505;-77
2023/07/05 09:41:58;;;;;;;12.63;11.48;;;;;;;32.27;42.21;99270.63;5075621;28;20028;-76
2023/07/05 09:44:24;;;;;;;13.80;12.53;;;;;;;32.19;41.88;99228.53;5064964;28;20033;-76
2023/07/05 09:46:49;;;;;;;13.02;11.82;;;;;;;32.37;42.23;99238.28;5072295;28;20034;-76
2023/07/05 09:49:17;;;;;;;11.85;10.63;;;;;;;32.66;42.12;99266.72;5074310;28;20115;-76
2023/07/05 09:51:44;;;;;;;12.77;11.68;;;;;;;32.75;41.38;99262.03;5062359;28;20035;-78
2023/07/05 09:54:26;;;;;;;14.52;13.23;;;;;;;32.81;40.51;99256.06;5079007;28;20487;-78
2023/07/05 09:56:58;;;;;;;15.00;13.50;;;;;;;32.66;41.16;99209.31;5074734;28;20060;-77
2023/07/05 09:59:24;;;;;;;12.55;11.35;;;;;;;32.95;40.59;99228.44;5073274;28;20098;-77
2023/07/05 10:01:54;;;;;;;15.00;13.82;;;;;;;33.24;40.51;99238.50;5074693;28;20032;-77
2023/07/05 10:04:26;;;;;;;12.27;11.02;;;;;;;33.28;40.58;99244.09;5074030;28;20029;-76
2023/07/05 10:06:52;;;;;;;14.43;11.48;;;;;;;33.28;40.55;99214.00;5061890;28;20033;-76
2023/07/05 10:09:22;;;;;;;12.05;10.95;;;;;;;33.27;39.90;99196.78;5076240;28;20020;-77
2023/07/05 10:11:59;;;;;;;10.95;9.75;;;;;;;33.58;40.07;99225.69;5071893;28;20036;-76
2023/07/05 10:14:30;;;;;;;11.50;10.25;;;;;;;33.86;38.68;99236.84;5065842;28;20078;-76
2023/07/05 10:17:03;;;;;;;;;;;;;;;33.90;38.32;99238.56;5078553;28;20024;-76
2023/07/05 10:19:37;;;;;;;11.82;10.82;;;;;;;33.93;38.45;99193.25;5089049;28;19924;-77
2023/07/05 10:22:23;;;;;;;10.27;9.15;;;;;;;34.26;38.44;99226.84;5065821;28;20029;-76
2023/07/05 10:24:51;;;;;;;12.88;9.68;;;;;;;34.24;37.67;99203.66;5071520;28;20433;-76
2023/07/05 10:27:37;;;;;;;9.98;8.88;;;;;;;34.62;36.41;99220.53;5072783;28;20032;-75
2023/07/05 10:30:13;;;;;;;12.35;11.27;;;;;;;34.49;37.20;99215.44;5063092;28;20032;-77
2023/07/05 10:32:42;;;;;;;10.80;9.75;;;;;;;34.49;37.08;99218.16;5052752;28;20452;-77
2023/07/05 10:35:22;;;;;;;9.73;8.55;;;;;;;34.65;36.52;99219.84;5056328;28;20043;-77
2023/07/05 10:37:47;;;;;;;10.00;7.43;;;;;;;34.77;36.76;99215.50;5052592;28;20025;-77
2023/07/05 10:40:14;;;;;;;9.20;8.40;;;;;;;34.96;36.34;99210.22;5071625;28;20410;-76
2023/07/05 10:42:48;;;;;;;8.80;7.50;;;;;;;34.98;35.73;99186.00;5071676;28;20032;-76
2023/07/05 10:45:16;;;;;;;9.05;8.25;;;;;;;34.98;35.14;99167.59;5071227;28;20055;-76
2023/07/05 10:47:44;;;;;;;8.15;7.45;;;;;;;35.21;35.35;99197.22;5074774;28;20020;-77
2023/07/05 10:50:13;;;;;;;6.90;6.20;;;;;;;34.91;35.50;99205.75;5071283;28;20055;-78
2023/07/05 10:52:48;;;;;;;11.07;8.43;;;;;;;34.96;35.26;99202.00;5072637;28;20048;-77
2023/07/05 10:55:19;;;;;;;8.50;7.55;;;;;;;35.07;35.08;99197.63;5073230;28;20056;-75
2023/07/05 10:57:55;;;;;;;7.38;6.68;;;;;;;35.17;34.16;99194.38;5068642;28;20045;-77
2023/07/05 11:00:21;;;;;;;8.82;6.75;;;;;;;35.31;34.52;99192.00;5075689;28;20493;-75
2023/07/05 11:02:58;;;;;;;8.27;7.13;;;;;;;35.28;34.26;99183.69;5087848;28;20031;-77
2023/07/05 11:05:39;;;;;;;7.07;6.38;;;;;;;35.48;34.38;99177.19;5074278;28;20032;-75
2023/07/05 11:08:28;;;;;;;6.97;6.05;;;;;;;35.69;34.09;99178.91;5071305;28;20503;-75
2023/07/05 11:11:01;;;;;;;7.40;6.65;;;;;;;35.94;34.00;99188.59;5072112;28;20044;-77
2023/07/05 11:13:29;;;;;;;7.78;7.05;;;;;;;36.26;33.78;99195.66;5071771;28;20485;-77
2023/07/05 11:15:55;;;;;;;8.82;8.02;;;;;;;36.53;33.43;99193.97;5069674;28;20033;-77
2023/07/05 11:18:22;;;;;;;7.20;6.45;;;;;;;36.79;32.90;99192.56;5071489;28;20463;-76
2023/07/05 11:20:54;;;;;;;8.35;6.68;;;;;;;36.76;32.67;99185.00;5070801;28;20068;-77
2023/07/05 11:23:42;;;;;;;7.65;6.88;;;;;;;36.79;31.18;99179.59;5071567;28;20107;-76
2023/07/05 11:26:08;;;;;;;7.18;5.82;;;;;;;36.84;31.58;99187.56;5074070;28;20107;-77
2023/07/05 11:28:35;;;;;;;6.90;6.30;;;;;;;36.71;31.31;99171.53;5071931;28;20112;-77